Cape Peony — 3FDX6 — position and weather

sailwx.info

Track history (hours):
 
Tides and Currents Weather Stations Pressure Air Temp Water Temp Dewpoint Dewpoint Depression Visibility Wind Speed Wind Dir Waves Ship Positions

Cape Peony

Last reported at 2016-Jul-30 21:30 UTC. Time now 2016-Aug-27 13:26 UTC.
Position S 33°14' E 152°23'.
Warning: this ship's position is 27 days out of date.

Length 292 m; draft 18 m.

Type: Cargo ship. MMSI: 373590000.

Date/timePositionNaut miles runAvg speedWind from/ knotsBaromVisibWave heightAir tempDewpointWater temp
2016-Jul-30 21:30S 33°14' E 152°23'1212.1
2016-Jul-30 20:31S 33°03' E 152°29'1211.9
2016-Jul-30 19:32S 32°52' E 152°34'1111.7
2016-Jul-30 18:33S 32°42' E 152°40'1211.5
2016-Jul-30 17:33S 32°31' E 152°46'1111.2
2016-Jul-30 16:33S 32°21' E 152°49'24812.3
2016-Jul-29 20:29S 28°18' E 153°49'1112.1
2016-Jul-29 19:33S 28°07' E 153°48'1312.5
2016-Jul-29 18:33S 27°55' E 153°48'1212.3
2016-Jul-29 17:33S 27°42' E 153°47'2412.1
2016-Jul-29 15:33S 27°18' E 153°45'1110.7
2016-Jul-29 14:32S 27°07' E 153°44'1111.6
2016-Jul-29 13:34S 26°56' E 153°44'  
Track history (hours):
 
Tides and Currents Weather Stations Pressure Air Temp Water Temp Dewpoint Dewpoint Depression Visibility Wind Speed Wind Dir Waves Ship Positions

Cape Peony

Last reported at 2016-Jul-30 21:30 UTC. Time now 2016-Aug-27 13:26 UTC.
Position S 33°14' E 152°23'.
Warning: this ship's position is 27 days out of date.

Length 292 m; draft 18 m.

Type: Cargo ship. MMSI: 373590000.

Date/timePositionNaut miles runAvg speedWind from/ knotsBaromVisibWave heightAir tempDewpointWater temp
2016-Jul-30 21:30S 33°14' E 152°23'1212.1
2016-Jul-30 20:31S 33°03' E 152°29'1211.9
2016-Jul-30 19:32S 32°52' E 152°34'1111.7
2016-Jul-30 18:33S 32°42' E 152°40'1211.5
2016-Jul-30 17:33S 32°31' E 152°46'1111.2
2016-Jul-30 16:33S 32°21' E 152°49'24812.3
2016-Jul-29 20:29S 28°18' E 153°49'1112.1
2016-Jul-29 19:33S 28°07' E 153°48'1312.5
2016-Jul-29 18:33S 27°55' E 153°48'1212.3
2016-Jul-29 17:33S 27°42' E 153°47'2412.1
2016-Jul-29 15:33S 27°18' E 153°45'1110.7
2016-Jul-29 14:32S 27°07' E 153°44'1111.6
2016-Jul-29 13:34S 26°56' E 153°44'  

Dump ship's entire track history